Time;durP1;ratioP1;P1;durP2;ratioP2;P2;SDS_P1;SDS_P2;PMS_P1;PMS_P2;Temp;Humidity;BMP_temperature;BMP_pressure;BME280_temperature;BME280_humidity;BME280_pressure;Samples;Min_cycle;Max_cycle;Signal;HPM_P1;HPM_P2
2022/01/13 00:02:58;;;;;;;;;;;4.40;99.90;;;;;;8387716;28;19935;-71
2022/01/13 00:07:00;;;;;;;;;;;4.40;99.90;;;;;;8375456;28;20370;-71
2022/01/13 00:11:01;;;;;;;;;;;4.30;99.90;;;;;;8369810;28;19971;-70
2022/01/13 00:23:52;;;;;;;;;;;4.30;99.90;;;;;;8378352;28;19956;-70
2022/01/13 00:27:49;;;;;;;;;;;4.30;99.90;;;;;;8378797;28;19970;-71
2022/01/13 00:31:51;;;;;;;;;;;4.20;99.90;;;;;;8372014;28;20028;-71
2022/01/13 00:35:53;;;;;;;;;;;4.20;99.90;;;;;;8373493;28;19936;-71
2022/01/13 00:39:55;;;;;;;;;;;4.20;99.90;;;;;;8368584;28;19960;-70
2022/01/13 00:43:57;;;;;;;;;;;4.20;99.90;;;;;;8376314;28;20410;-71
2022/01/13 00:47:59;;;;;;;;;;;4.20;99.90;;;;;;8377073;28;20007;-70
2022/01/13 00:52:00;;;;;;;;;;;4.20;99.90;;;;;;8373096;28;20400;-71
2022/01/13 00:56:02;;;;;;;;;;;4.10;99.90;;;;;;8378315;28;20309;-71
2022/01/13 01:00:04;;;;;;;;;;;4.10;99.90;;;;;;8379555;28;19928;-71
2022/01/13 01:04:06;;;;;;;;;;;4.10;99.90;;;;;;8385599;28;19933;-70
2022/01/13 01:08:12;;;;;;;;;;;4.10;99.90;;;;;;8379200;28;19967;-70
2022/01/13 01:12:18;;;;;;;;;;;4.10;99.90;;;;;;8383617;28;19978;-70
2022/01/13 01:16:19;;;;;;;;;;;4.10;99.90;;;;;;8371632;28;20443;-70
2022/01/13 01:20:22;;;;;;;;;;;4.10;99.90;;;;;;8372565;28;19933;-70
2022/01/13 01:28:35;;;;;;;;;;;4.10;99.90;;;;;;8381336;28;20046;-71
2022/01/13 01:32:38;;;;;;;;;;;4.10;99.90;;;;;;8367594;28;20355;-71
2022/01/13 01:36:40;;;;;;;;;;;4.10;99.90;;;;;;8353758;28;19999;-70
2022/01/13 01:40:41;;;;;;;;;;;4.10;99.90;;;;;;8367043;28;19940;-71
2022/01/13 01:44:45;;;;;;;;;;;4.10;99.90;;;;;;8360746;28;20375;-71
2022/01/13 01:48:46;;;;;;;;;;;4.10;99.90;;;;;;8378750;28;19931;-71
2022/01/13 01:52:49;;;;;;;;;;;4.20;99.90;;;;;;8383002;28;20423;-69
2022/01/13 01:56:50;;;;;;;;;;;4.20;99.90;;;;;;8368444;28;20402;-68
2022/01/13 02:00:54;;;;;;;;;;;4.20;99.90;;;;;;8385222;28;19928;-70
2022/01/13 02:04:57;;;;;;;;;;;4.20;99.90;;;;;;8374720;28;20457;-68
2022/01/13 02:08:58;;;;;;;;;;;4.20;99.90;;;;;;8387729;28;19924;-69
2022/01/13 02:13:06;;;;;;;;;;;4.10;99.90;;;;;;8371590;28;19975;-69
2022/01/13 02:17:11;;;;;;;;;;;4.10;99.90;;;;;;8383076;28;20256;-68
2022/01/13 02:21:13;;;;;;;;;;;4.00;99.90;;;;;;8381396;28;20027;-69
2022/01/13 02:25:15;;;;;;;;;;;4.00;99.90;;;;;;8351961;28;20027;-68
2022/01/13 02:29:17;;;;;;;;;;;4.00;99.90;;;;;;8375539;28;19925;-71
2022/01/13 02:33:19;;;;;;;;;;;4.00;99.90;;;;;;8385616;28;20028;-70
2022/01/13 02:37:20;;;;;;;;;;;3.90;99.90;;;;;;8359554;28;20747;-70
2022/01/13 02:41:23;;;;;;;;;;;3.90;99.90;;;;;;8379498;28;20427;-71
2022/01/13 02:45:32;;;;;;;;;;;3.80;99.90;;;;;;8376675;28;20360;-70
2022/01/13 02:49:34;;;;;;;;;;;3.80;99.90;;;;;;8374167;28;19972;-70
2022/01/13 02:53:35;;;;;;;;;;;3.80;99.90;;;;;;8389126;28;20414;-71
2022/01/13 02:57:39;;;;;;;;;;;3.80;99.90;;;;;;8374161;28;19928;-70
2022/01/13 03:01:40;;;;;;;;;;;3.80;99.90;;;;;;8372613;28;20257;-70
2022/01/13 03:05:42;;;;;;;;;;;3.80;99.90;;;;;;8378564;28;19939;-70
2022/01/13 03:09:44;;;;;;;;;;;3.80;99.90;;;;;;8385181;28;19964;-70
2022/01/13 03:13:46;;;;;;;;;;;3.90;99.90;;;;;;8373314;28;19931;-71
2022/01/13 03:17:47;;;;;;;;;;;3.90;99.90;;;;;;8379872;28;19960;-70
2022/01/13 03:21:49;;;;;;;;;;;3.90;99.90;;;;;;8380401;28;19968;-70
2022/01/13 03:25:50;;;;;;;;;;;3.90;99.90;;;;;;8374381;28;20337;-70
2022/01/13 03:29:52;;;;;;;;;;;3.90;99.90;;;;;;8380522;28;19979;-70
2022/01/13 03:33:54;;;;;;;;;;;3.90;99.90;;;;;;8378016;28;19954;-70
2022/01/13 03:37:55;;;;;;;;;;;3.90;99.90;;;;;;8374638;28;19954;-70
2022/01/13 03:41:58;;;;;;;;;;;3.90;99.90;;;;;;8385095;28;19932;-70
2022/01/13 03:45:59;;;;;;;;;;;3.90;99.90;;;;;;8383408;28;19932;-70
2022/01/13 03:50:01;;;;;;;;;;;3.90;99.90;;;;;;8380489;28;19925;-70
2022/01/13 03:54:39;;;;;;;;;;;4.00;99.90;;;;;;8375833;28;19967;-71
2022/01/13 03:59:12;;;;;;;;;;;3.90;99.90;;;;;;8357482;28;19929;-70
2022/01/13 04:03:14;;;;;;;;;;;4.00;99.90;;;;;;8368119;28;19968;-70
2022/01/13 04:07:20;;;;;;;;;;;4.00;99.90;;;;;;8376569;28;19924;-70
2022/01/13 04:11:32;;;;;;;;;;;4.00;99.90;;;;;;8379718;28;19971;-70
2022/01/13 04:15:37;;;;;;;;;;;4.00;99.90;;;;;;8373918;28;20621;-70
2022/01/13 04:19:39;;;;;;;;;;;4.00;99.90;;;;;;8390479;28;20383;-70
2022/01/13 04:23:40;;;;;;;;;;;4.00;99.90;;;;;;8383540;28;20276;-70
2022/01/13 04:27:44;;;;;;;;;;;4.00;99.90;;;;;;8388052;28;19925;-70
2022/01/13 04:31:49;;;;;;;;;;;4.00;99.90;;;;;;8376083;28;19935;-70
2022/01/13 04:35:51;;;;;;;;;;;4.00;99.90;;;;;;8371301;28;20368;-70
2022/01/13 04:39:52;;;;;;;;;;;4.00;99.90;;;;;;8381996;28;19948;-70
2022/01/13 04:43:54;;;;;;;;;;;4.00;99.90;;;;;;8370492;28;19939;-70
2022/01/13 04:47:57;;;;;;;;;;;4.00;99.90;;;;;;8370293;28;19970;-70
2022/01/13 04:51:58;;;;;;;;;;;4.00;99.90;;;;;;8374591;28;20344;-70
2022/01/13 04:56:08;;;;;;;;;;;4.00;99.90;;;;;;8372179;28;19968;-70
2022/01/13 05:00:10;;;;;;;;;;;4.00;99.90;;;;;;8383134;28;19924;-70
2022/01/13 05:04:12;;;;;;;;;;;4.00;99.90;;;;;;8386855;28;19931;-70
2022/01/13 05:08:13;;;;;;;;;;;4.00;99.90;;;;;;8385919;28;19978;-70
2022/01/13 05:12:17;;;;;;;;;;;4.00;99.90;;;;;;8383324;28;19972;-71
2022/01/13 05:16:26;;;;;;;;;;;4.00;99.90;;;;;;8386370;28;20498;-70
2022/01/13 05:20:40;;;;;;;;;;;4.00;99.90;;;;;;8389646;28;19925;-70
2022/01/13 05:24:44;;;;;;;;;;;3.90;99.90;;;;;;8387721;28;20246;-70
2022/01/13 05:28:46;;;;;;;;;;;3.90;99.90;;;;;;8375934;28;19939;-70
2022/01/13 05:32:49;;;;;;;;;;;3.90;99.90;;;;;;8380269;28;20146;-70
2022/01/13 05:36:51;;;;;;;;;;;3.90;99.90;;;;;;8382477;28;20336;-70
2022/01/13 05:40:53;;;;;;;;;;;3.90;99.90;;;;;;8366086;28;19990;-70
2022/01/13 05:44:58;;;;;;;;;;;3.90;99.90;;;;;;8382626;28;19933;-70
2022/01/13 05:49:00;;;;;;;;;;;3.90;99.90;;;;;;8380878;28;19924;-70
2022/01/13 05:53:02;;;;;;;;;;;3.90;99.90;;;;;;8366366;28;20311;-71
2022/01/13 05:57:04;;;;;;;;;;;3.90;99.90;;;;;;8381998;28;20303;-70
2022/01/13 06:01:05;;;;;;;;;;;3.90;99.90;;;;;;8382110;28;19968;-70
2022/01/13 06:05:08;;;;;;;;;;;3.90;99.90;;;;;;8364893;28;19979;-70
2022/01/13 06:09:09;;;;;;;;;;;3.90;99.90;;;;;;8381497;28;19947;-70
2022/01/13 06:13:11;;;;;;;;;;;3.90;99.90;;;;;;8383733;28;20372;-70
2022/01/13 06:17:13;;;;;;;;;;;3.90;99.90;;;;;;8367500;28;19928;-70
2022/01/13 06:21:15;;;;;;;;;;;3.90;99.90;;;;;;8384653;28;19943;-70
2022/01/13 06:25:17;;;;;;;;;;;3.90;99.90;;;;;;8383076;28;19925;-70
2022/01/13 06:29:19;;;;;;;;;;;3.90;99.90;;;;;;8369035;28;19943;-70
2022/01/13 06:33:20;;;;;;;;;;;3.90;99.90;;;;;;8396592;28;20359;-70
2022/01/13 06:37:22;;;;;;;;;;;3.80;99.90;;;;;;8395658;28;19972;-70
2022/01/13 06:41:23;;;;;;;;;;;3.80;99.90;;;;;;8372225;28;19925;-70
2022/01/13 06:45:25;;;;;;;;;;;3.80;99.90;;;;;;8374613;28;19971;-70
2022/01/13 06:49:26;;;;;;;;;;;3.80;99.90;;;;;;8385329;28;19929;-70
2022/01/13 06:53:28;;;;;;;;;;;3.80;99.90;;;;;;8387349;28;19947;-70
2022/01/13 06:57:30;;;;;;;;;;;3.80;99.90;;;;;;8385245;28;19978;-70
2022/01/13 07:01:31;;;;;;;;;;;3.80;99.90;;;;;;8366064;28;19935;-71
2022/01/13 07:05:33;;;;;;;;;;;3.80;99.90;;;;;;8384981;28;20400;-71
2022/01/13 07:09:35;;;;;;;;;;;3.80;99.90;;;;;;8374929;28;19939;-70
2022/01/13 07:13:36;;;;;;;;;;;3.80;99.90;;;;;;8390089;28;19999;-71
2022/01/13 07:17:38;;;;;;;;;;;3.80;99.90;;;;;;8391546;28;19924;-71
2022/01/13 07:21:41;;;;;;;;;;;3.80;99.90;;;;;;8371459;28;19924;-70
2022/01/13 07:25:42;;;;;;;;;;;3.90;99.90;;;;;;8385899;28;20367;-70
2022/01/13 07:29:44;;;;;;;;;;;3.90;99.90;;;;;;8354494;28;19928;-70
2022/01/13 07:33:47;;;;;;;;;;;3.90;99.90;;;;;;8351868;28;19925;-70
2022/01/13 07:37:48;;;;;;;;;;;3.90;99.90;;;;;;8350050;28;19960;-70
2022/01/13 07:41:50;;;;;;;;;;;3.90;99.90;;;;;;8358874;28;19925;-70
2022/01/13 07:45:52;;;;;;;;;;;3.90;99.90;;;;;;8355771;28;19925;-70
2022/01/13 07:49:54;;;;;;;;;;;3.90;99.90;;;;;;8361408;28;19955;-70
2022/01/13 07:53:56;;;;;;;;;;;3.90;99.90;;;;;;8355981;28;19929;-70
2022/01/13 07:57:58;;;;;;;;;;;4.00;99.90;;;;;;8352875;28;20388;-71
2022/01/13 08:02:00;;;;;;;;;;;4.00;99.90;;;;;;8350240;28;20399;-70
2022/01/13 08:06:04;;;;;;;;;;;4.00;99.90;;;;;;8351097;28;20365;-70
2022/01/13 08:10:06;;;;;;;;;;;4.00;99.90;;;;;;8352174;28;19960;-71
2022/01/13 08:14:07;;;;;;;;;;;4.00;99.90;;;;;;8383371;28;19968;-70
2022/01/13 08:22:29;;;;;;;;;;;4.00;99.90;;;;;;8354574;28;19925;-70
2022/01/13 08:26:32;;;;;;;;;;;3.90;99.90;;;;;;8354169;28;19979;-70
2022/01/13 08:30:33;;;;;;;;;;;3.90;99.90;;;;;;8384972;28;19929;-70
2022/01/13 08:34:35;;;;;;;;;;;4.00;99.90;;;;;;8385370;28;19925;-70
2022/01/13 08:38:37;;;;;;;;;;;4.00;99.90;;;;;;8379967;28;20324;-70
2022/01/13 08:42:39;;;;;;;;;;;4.00;99.90;;;;;;8370160;28;20022;-70
2022/01/13 08:46:40;;;;;;;;;;;4.00;99.90;;;;;;8385378;28;19932;-70
2022/01/13 08:50:42;;;;;;;;;;;4.00;99.90;;;;;;8384991;28;20362;-70
2022/01/13 08:54:46;;;;;;;;;;;4.00;99.90;;;;;;8385888;28;19929;-71
2022/01/13 08:58:48;;;;;;;;;;;4.00;99.90;;;;;;8383614;28;19932;-70
2022/01/13 09:02:49;;;;;;;;;;;4.00;99.90;;;;;;8364133;28;19931;-70
2022/01/13 09:06:51;;;;;;;;;;;4.00;99.90;;;;;;8383613;28;19994;-70
2022/01/13 09:10:52;;;;;;;;;;;4.00;99.90;;;;;;8372067;28;19978;-70
2022/01/13 09:15:01;;;;;;;;;;;4.00;99.90;;;;;;8390008;28;19929;-70
2022/01/13 09:19:09;;;;;;;;;;;4.10;99.90;;;;;;8376467;28;19959;-70
2022/01/13 09:23:11;;;;;;;;;;;4.10;99.90;;;;;;8380046;28;19924;-70
2022/01/13 09:27:12;;;;;;;;;;;4.10;99.90;;;;;;8380356;28;19971;-70
2022/01/13 09:31:14;;;;;;;;;;;4.10;99.90;;;;;;8387924;28;19936;-70
2022/01/13 09:35:15;;;;;;;;;;;4.10;99.90;;;;;;8371439;28;20024;-70
2022/01/13 09:39:17;;;;;;;;;;;4.10;99.90;;;;;;8372748;28;19931;-70
2022/01/13 09:43:25;;;;;;;;;;;4.10;99.90;;;;;;8372440;28;19972;-70
2022/01/13 09:47:29;;;;;;;;;;;4.20;99.90;;;;;;8387672;28;19924;-70
2022/01/13 09:51:35;;;;;;;;;;;4.20;99.90;;;;;;8376415;28;19945;-70
2022/01/13 09:55:36;;;;;;;;;;;4.20;99.90;;;;;;8381644;28;19972;-70
2022/01/13 09:59:38;;;;;;;;;;;4.30;99.90;;;;;;8379220;28;19924;-70
2022/01/13 10:03:39;;;;;;;;;;;4.30;99.90;;;;;;8373925;28;19924;-70
2022/01/13 10:07:42;;;;;;;;;;;4.30;99.90;;;;;;8390833;28;19924;-70
2022/01/13 10:11:56;;;;;;;;;;;4.30;99.90;;;;;;8385713;28;19940;-70
2022/01/13 10:20:19;;;;;;;;;;;4.40;99.90;;;;;;8388698;28;19924;-70
2022/01/13 10:24:23;;;;;;;;;;;4.40;99.90;;;;;;8394910;28;20027;-70
2022/01/13 10:28:24;;;;;;;;;;;4.50;99.90;;;;;;8386449;28;19944;-70
2022/01/13 10:32:36;;;;;;;;;;;4.40;99.90;;;;;;8380209;28;19925;-70
2022/01/13 10:36:56;;;;;;;;;;;4.40;99.90;;;;;;8384770;28;20292;-70
2022/01/13 10:41:18;;;;;;;;;;;4.50;99.90;;;;;;8387112;28;20337;-70
2022/01/13 10:45:30;;;;;;;;;;;4.40;99.90;;;;;;8383913;28;20338;-70
2022/01/13 10:49:32;;;;;;;;;;;4.40;99.90;;;;;;8394890;28;20322;-70
2022/01/13 10:53:35;;;;;;;;;;;4.50;99.90;;;;;;8387239;28;19960;-70
2022/01/13 10:57:38;;;;;;;;;;;4.40;99.90;;;;;;8371532;28;19999;-70
2022/01/13 11:01:42;;;;;;;;;;;4.40;99.90;;;;;;8386616;28;19936;-70
2022/01/13 11:05:45;;;;;;;;;;;4.40;99.90;;;;;;8392093;28;19924;-70
2022/01/13 11:09:53;;;;;;;;;;;4.40;99.90;;;;;;8394345;28;20267;-70
2022/01/13 11:13:57;;;;;;;;;;;4.40;99.90;;;;;;8362882;28;19936;-70
2022/01/13 11:17:59;;;;;;;;;;;4.40;99.90;;;;;;8391035;28;19963;-70
2022/01/13 11:22:01;;;;;;;;;;;4.50;99.90;;;;;;8372848;28;20391;-70
2022/01/13 11:26:03;;;;;;;;;;;4.50;99.90;;;;;;8389340;28;19929;-70
2022/01/13 11:30:10;;;;;;;;;;;4.50;99.90;;;;;;8375159;28;20285;-70
2022/01/13 11:34:11;;;;;;;;;;;4.50;99.90;;;;;;8389969;28;19925;-70
2022/01/13 11:38:15;;;;;;;;;;;4.50;99.90;;;;;;8392252;28;19935;-70
2022/01/13 11:42:18;;;;;;;;;;;4.60;99.90;;;;;;8386659;28;19943;-70
2022/01/13 11:46:21;;;;;;;;;;;4.60;99.90;;;;;;8392900;28;19932;-69
2022/01/13 11:50:31;;;;;;;;;;;4.60;99.90;;;;;;8385555;28;19924;-70
2022/01/13 11:54:33;;;;;;;;;;;4.50;99.90;;;;;;8385298;28;20047;-70
2022/01/13 11:58:56;;;;;;;;;;;4.50;99.90;;;;;;8384998;28;19928;-70
2022/01/13 12:02:59;;;;;;;;;;;4.60;99.90;;;;;;8364836;28;19924;-70
2022/01/13 12:07:01;;;;;;;;;;;4.60;99.90;;;;;;8388328;28;19982;-70
2022/01/13 12:11:03;;;;;;;;;;;4.60;99.90;;;;;;8394969;28;20399;-70
2022/01/13 12:15:15;;;;;;;;;;;4.60;99.90;;;;;;8389382;28;19928;-70
2022/01/13 12:19:36;;;;;;;;;;;4.70;99.90;;;;;;8382272;28;20236;-70
2022/01/13 12:23:39;;;;;;;;;;;4.70;99.90;;;;;;8383438;28;19983;-70
2022/01/13 12:27:45;;;;;;;;;;;4.70;99.90;;;;;;8387240;28;19929;-70
2022/01/13 12:31:53;;;;;;;;;;;4.80;99.90;;;;;;8387834;28;19925;-70
2022/01/13 12:35:55;;;;;;;;;;;4.80;99.90;;;;;;8373447;28;19929;-70
2022/01/13 12:40:02;;;;;;;;;;;4.80;99.90;;;;;;8385041;28;19932;-71
2022/01/13 12:44:20;;;;;;;;;;;4.80;99.90;;;;;;8384993;28;19932;-71
2022/01/13 12:48:22;;;;;;;;;;;4.80;99.90;;;;;;8392105;28;19925;-71
2022/01/13 12:52:24;;;;;;;;;;;4.80;99.90;;;;;;8382780;28;20392;-71
2022/01/13 12:56:27;;;;;;;;;;;4.80;99.90;;;;;;8388483;28;20015;-70
2022/01/13 13:00:29;;;;;;;;;;;4.80;99.90;;;;;;8384376;28;19940;-70
2022/01/13 13:04:34;;;;;;;;;;;4.90;99.90;;;;;;8375728;28;19976;-70
2022/01/13 13:08:36;;;;;;;;;;;4.90;99.90;;;;;;8381991;28;19925;-70
2022/01/13 13:12:40;;;;;;;;;;;4.90;99.90;;;;;;8390251;28;19924;-70
2022/01/13 13:16:42;;;;;;;;;;;4.90;99.90;;;;;;8386106;28;19949;-70
2022/01/13 13:20:44;;;;;;;;;;;4.90;99.90;;;;;;8386153;28;19924;-70
2022/01/13 13:24:46;;;;;;;;;;;4.90;99.90;;;;;;8387199;28;19982;-70
2022/01/13 13:28:49;;;;;;;;;;;4.90;99.90;;;;;;8389091;28;19931;-70
2022/01/13 13:32:51;;;;;;;;;;;4.90;99.90;;;;;;8384055;28;19925;-70
2022/01/13 13:36:52;;;;;;;;;;;4.90;99.90;;;;;;8367595;28;19925;-70
2022/01/13 13:40:54;;;;;;;;;;;4.80;99.90;;;;;;8376642;28;19964;-70
2022/01/13 13:44:56;;;;;;;;;;;4.80;99.90;;;;;;8382993;28;20028;-70
2022/01/13 13:48:57;;;;;;;;;;;4.80;99.90;;;;;;8385850;28;20536;-70
2022/01/13 13:53:05;;;;;;;;;;;4.80;99.90;;;;;;8368885;28;19924;-70
2022/01/13 13:57:08;;;;;;;;;;;4.80;99.90;;;;;;8384944;28;20402;-70
2022/01/13 14:01:09;;;;;;;;;;;4.80;99.90;;;;;;8385542;28;19974;-70
2022/01/13 14:05:11;;;;;;;;;;;4.80;99.90;;;;;;8379400;28;19994;-70
2022/01/13 14:09:13;;;;;;;;;;;4.80;99.90;;;;;;8390344;28;19925;-70
2022/01/13 14:13:16;;;;;;;;;;;4.70;99.90;;;;;;8382744;28;19971;-70
2022/01/13 14:17:28;;;;;;;;;;;4.70;99.90;;;;;;8377252;28;19924;-70
2022/01/13 14:21:44;;;;;;;;;;;4.80;99.90;;;;;;8375237;28;19931;-70
2022/01/13 14:25:46;;;;;;;;;;;4.80;99.90;;;;;;8366699;28;20514;-71
2022/01/13 14:29:50;;;;;;;;;;;4.80;99.90;;;;;;8369396;28;19948;-70
2022/01/13 14:33:51;;;;;;;;;;;4.80;99.90;;;;;;8385505;28;20012;-70
2022/01/13 14:37:54;;;;;;;;;;;4.80;99.90;;;;;;8372056;28;19924;-70
2022/01/13 14:41:55;;;;;;;;;;;4.80;99.90;;;;;;8389905;28;19960;-70
2022/01/13 14:46:09;;;;;;;;;;;4.80;99.90;;;;;;8376374;28;20265;-70
2022/01/13 14:50:10;;;;;;;;;;;4.90;99.90;;;;;;8386303;28;19947;-70
2022/01/13 14:54:13;;;;;;;;;;;4.90;99.90;;;;;;8385372;28;19959;-71
2022/01/13 14:58:14;;;;;;;;;;;4.90;99.90;;;;;;8382905;28;20350;-70
2022/01/13 15:02:16;;;;;;;;;;;5.00;99.90;;;;;;8385387;28;19928;-71
2022/01/13 15:06:18;;;;;;;;;;;5.00;99.90;;;;;;8388658;28;19956;-70
2022/01/13 15:10:20;;;;;;;;;;;5.00;99.90;;;;;;8388048;28;20373;-70
2022/01/13 15:14:21;;;;;;;;;;;5.00;99.90;;;;;;8389759;28;20379;-70
2022/01/13 15:18:24;;;;;;;;;;;5.00;99.90;;;;;;8392549;28;20313;-71
2022/01/13 15:22:27;;;;;;;;;;;5.00;99.90;;;;;;8372049;28;19924;-70
2022/01/13 15:26:29;;;;;;;;;;;5.00;99.90;;;;;;8370941;28;19975;-70
2022/01/13 15:30:31;;;;;;;;;;;5.00;99.90;;;;;;8385989;28;19928;-70
2022/01/13 15:34:33;;;;;;;;;;;5.10;99.90;;;;;;8387722;28;19955;-70
2022/01/13 15:38:35;;;;;;;;;;;5.10;99.90;;;;;;8387411;28;19960;-70
2022/01/13 15:42:39;;;;;;;;;;;5.10;99.90;;;;;;8387547;28;19925;-70
2022/01/13 15:46:41;;;;;;;;;;;5.00;99.90;;;;;;8385104;28;20368;-70
2022/01/13 15:50:43;;;;;;;;;;;5.00;99.90;;;;;;8386312;28;19925;-70
2022/01/13 15:54:44;;;;;;;;;;;5.00;99.90;;;;;;8367389;28;20300;-70
2022/01/13 15:58:46;;;;;;;;;;;5.00;99.90;;;;;;8362229;28;19956;-70
2022/01/13 16:02:48;;;;;;;;;;;5.00;99.90;;;;;;8340725;28;19964;-70
2022/01/13 16:06:50;;;;;;;;;;;5.00;99.90;;;;;;8359370;28;19940;-70
2022/01/13 16:10:51;;;;;;;;;;;5.00;99.90;;;;;;8358956;28;19960;-70
2022/01/13 16:14:55;;;;;;;;;;;5.00;99.90;;;;;;8357551;28;20371;-70
2022/01/13 16:18:57;;;;;;;;;;;5.00;99.90;;;;;;8362083;28;20380;-70
2022/01/13 16:22:58;;;;;;;;;;;5.00;99.90;;;;;;8360646;28;19932;-70
2022/01/13 16:27:00;;;;;;;;;;;5.00;99.90;;;;;;8357616;28;19960;-71
2022/01/13 16:31:02;;;;;;;;;;;5.00;99.90;;;;;;8360844;28;20340;-70
2022/01/13 16:35:08;;;;;;;;;;;5.00;99.90;;;;;;8359885;28;20026;-70
2022/01/13 16:39:09;;;;;;;;;;;5.00;99.90;;;;;;8357723;28;19975;-70
2022/01/13 16:43:14;;;;;;;;;;;5.00;99.90;;;;;;8353002;28;20340;-70
2022/01/13 16:47:17;;;;;;;;;;;5.00;99.90;;;;;;8361540;28;19939;-70
2022/01/13 16:51:18;;;;;;;;;;;5.00;99.90;;;;;;8359291;28;19924;-70
2022/01/13 16:55:25;;;;;;;;;;;5.00;99.90;;;;;;8357461;28;19925;-71
2022/01/13 16:59:26;;;;;;;;;;;5.00;99.90;;;;;;8352057;28;19948;-70
2022/01/13 17:03:28;;;;;;;;;;;5.00;99.90;;;;;;8356501;28;19967;-70
2022/01/13 17:07:31;;;;;;;;;;;5.10;99.90;;;;;;8373914;28;20039;-70
2022/01/13 17:11:33;;;;;;;;;;;5.10;99.90;;;;;;8360231;28;19983;-71
2022/01/13 17:15:36;;;;;;;;;;;5.10;99.90;;;;;;8355438;28;20390;-70
2022/01/13 17:19:37;;;;;;;;;;;5.10;99.90;;;;;;8358925;28;20022;-70
2022/01/13 17:23:59;;;;;;;;;;;5.10;99.90;;;;;;8357564;28;19968;-70
2022/01/13 17:28:01;;;;;;;;;;;5.10;99.90;;;;;;8339039;28;19925;-71
2022/01/13 17:32:02;;;;;;;;;;;5.10;99.90;;;;;;8361075;28;19925;-70
2022/01/13 17:36:04;;;;;;;;;;;5.10;99.90;;;;;;8360075;28;20337;-70
2022/01/13 17:40:06;;;;;;;;;;;5.10;99.90;;;;;;8358720;28;19978;-70
2022/01/13 17:44:08;;;;;;;;;;;5.10;99.90;;;;;;8361271;28;19936;-70
2022/01/13 17:48:11;;;;;;;;;;;5.10;99.90;;;;;;8352185;28;20419;-70
2022/01/13 17:52:16;;;;;;;;;;;5.10;99.90;;;;;;8365228;28;19924;-71
2022/01/13 17:56:21;;;;;;;;;;;5.10;99.90;;;;;;8364015;28;19925;-70
2022/01/13 18:00:22;;;;;;;;;;;5.10;99.90;;;;;;8355167;28;19933;-70
2022/01/13 18:04:24;;;;;;;;;;;5.10;99.90;;;;;;8355435;28;19971;-70
2022/01/13 18:08:26;;;;;;;;;;;5.00;99.90;;;;;;8355128;28;19932;-70
2022/01/13 18:12:34;;;;;;;;;;;5.10;99.90;;;;;;8355236;28;19929;-70
2022/01/13 18:16:36;;;;;;;;;;;5.10;99.90;;;;;;8335036;28;20051;-71
2022/01/13 18:20:38;;;;;;;;;;;5.10;99.90;;;;;;8359192;28;19940;-70
2022/01/13 18:24:42;;;;;;;;;;;5.00;99.90;;;;;;8366989;28;20031;-70
2022/01/13 18:28:46;;;;;;;;;;;5.00;99.90;;;;;;8375690;28;19925;-70
2022/01/13 18:32:47;;;;;;;;;;;5.00;99.90;;;;;;8361742;28;19925;-71
2022/01/13 18:36:49;;;;;;;;;;;5.00;99.90;;;;;;8360456;28;20149;-70
2022/01/13 18:40:51;;;;;;;;;;;5.00;99.90;;;;;;8359905;28;20355;-70
2022/01/13 18:44:52;;;;;;;;;;;5.00;99.90;;;;;;8377028;28;20099;-70
2022/01/13 18:48:54;;;;;;;;;;;5.00;99.90;;;;;;8365503;28;20407;-70
2022/01/13 18:52:56;;;;;;;;;;;5.00;99.90;;;;;;8362687;28;19957;-70
2022/01/13 18:56:57;;;;;;;;;;;5.10;99.90;;;;;;8361862;28;19984;-70
2022/01/13 19:00:59;;;;;;;;;;;5.10;99.90;;;;;;8361229;28;19972;-70
2022/01/13 19:05:01;;;;;;;;;;;5.10;99.90;;;;;;8359677;28;19935;-70
2022/01/13 19:09:03;;;;;;;;;;;5.20;99.90;;;;;;8363312;28;20011;-70
2022/01/13 19:13:05;;;;;;;;;;;5.10;99.90;;;;;;8359458;28;19929;-70
2022/01/13 19:17:10;;;;;;;;;;;5.10;99.90;;;;;;8355104;28;20423;-70
2022/01/13 19:21:12;;;;;;;;;;;5.10;99.90;;;;;;8362906;28;20043;-70
2022/01/13 19:25:14;;;;;;;;;;;5.10;99.90;;;;;;8362706;28;19975;-70
2022/01/13 19:29:15;;;;;;;;;;;5.10;99.90;;;;;;8361236;28;19983;-70
2022/01/13 19:33:17;;;;;;;;;;;5.10;99.90;;;;;;8365629;28;19955;-70
2022/01/13 19:37:18;;;;;;;;;;;5.10;99.90;;;;;;8365007;28;19976;-70
2022/01/13 19:41:20;;;;;;;;;;;5.10;99.90;;;;;;8364305;28;19925;-71
2022/01/13 19:45:22;;;;;;;;;;;5.10;99.90;;;;;;8364410;28;20051;-70
2022/01/13 19:49:23;;;;;;;;;;;5.10;99.90;;;;;;8376999;28;19971;-70
2022/01/13 19:53:25;;;;;;;;;;;5.10;99.90;;;;;;8364749;28;20016;-68
2022/01/13 19:57:26;;;;;;;;;;;5.00;99.90;;;;;;8362068;28;20380;-69
2022/01/13 20:01:30;;;;;;;;;;;5.00;99.90;;;;;;8361147;28;20292;-68
2022/01/13 20:05:32;;;;;;;;;;;5.00;99.90;;;;;;8343140;28;19932;-68
2022/01/13 20:09:33;;;;;;;;;;;5.00;99.90;;;;;;8347568;28;19975;-69
2022/01/13 20:13:36;;;;;;;;;;;4.90;99.90;;;;;;8361510;28;20011;-68
2022/01/13 20:17:38;;;;;;;;;;;4.90;99.90;;;;;;8362528;28;19947;-68
2022/01/13 20:21:40;;;;;;;;;;;4.90;99.90;;;;;;8362049;28;20387;-68
2022/01/13 20:25:42;;;;;;;;;;;4.90;99.90;;;;;;8361274;28;19982;-68
2022/01/13 20:29:43;;;;;;;;;;;4.80;99.90;;;;;;8362676;28;20359;-68
2022/01/13 20:33:45;;;;;;;;;;;4.80;99.90;;;;;;8338805;28;20019;-68
2022/01/13 20:37:46;;;;;;;;;;;4.80;99.90;;;;;;8361856;28;20019;-68
2022/01/13 20:41:48;;;;;;;;;;;4.90;99.90;;;;;;8358480;28;19925;-69
2022/01/13 20:45:50;;;;;;;;;;;4.90;99.90;;;;;;8361081;28;19925;-68
2022/01/13 20:49:52;;;;;;;;;;;4.90;99.90;;;;;;8355664;28;20605;-68
2022/01/13 20:53:53;;;;;;;;;;;4.90;99.90;;;;;;8374830;28;19991;-68
2022/01/13 20:57:58;;;;;;;;;;;4.90;99.90;;;;;;8367601;28;19983;-68
2022/01/13 21:01:59;;;;;;;;;;;4.80;99.90;;;;;;8370682;28;20008;-68
2022/01/13 21:06:02;;;;;;;;;;;4.80;99.90;;;;;;8360081;28;20332;-68
2022/01/13 21:10:04;;;;;;;;;;;4.80;99.90;;;;;;8340427;28;20422;-68
2022/01/13 21:14:06;;;;;;;;;;;4.80;99.90;;;;;;8351094;28;19975;-68
2022/01/13 21:18:07;;;;;;;;;;;4.80;99.90;;;;;;8337671;28;19979;-68
2022/01/13 21:22:09;;;;;;;;;;;4.80;99.90;;;;;;8356734;28;20372;-68
2022/01/13 21:26:11;;;;;;;;;;;4.80;99.90;;;;;;8356360;28;20375;-68
2022/01/13 21:30:13;;;;;;;;;;;4.80;99.90;;;;;;8359696;28;19979;-68
2022/01/13 21:34:15;;;;;;;;;;;4.80;99.90;;;;;;8360933;28;20202;-68
2022/01/13 21:38:17;;;;;;;;;;;4.80;99.90;;;;;;8372043;28;20052;-68
2022/01/13 21:42:18;;;;;;;;;;;4.80;99.90;;;;;;8362556;28;20323;-68
2022/01/13 21:46:21;;;;;;;;;;;4.80;99.90;;;;;;8356560;28;19964;-68
2022/01/13 21:50:23;;;;;;;;;;;4.70;99.90;;;;;;8352161;28;19925;-68
2022/01/13 21:54:46;;;;;;;;;;;4.70;99.90;;;;;;8355854;28;19924;-68
2022/01/13 21:58:48;;;;;;;;;;;4.70;99.90;;;;;;8356908;28;19933;-68
2022/01/13 22:02:51;;;;;;;;;;;4.70;99.90;;;;;;8368797;28;20319;-68
2022/01/13 22:06:54;;;;;;;;;;;4.70;99.90;;;;;;8387795;28;19924;-68
2022/01/13 22:10:56;;;;;;;;;;;4.70;99.90;;;;;;8389730;28;19965;-68
2022/01/13 22:14:58;;;;;;;;;;;4.60;99.90;;;;;;8394325;28;19924;-68
2022/01/13 22:19:02;;;;;;;;;;;4.60;99.90;;;;;;8390375;28;19925;-68
2022/01/13 22:23:04;;;;;;;;;;;4.60;99.90;;;;;;8389268;28;19924;-68
2022/01/13 22:27:07;;;;;;;;;;;4.60;99.90;;;;;;8394193;28;19924;-68
2022/01/13 22:31:08;;;;;;;;;;;4.60;99.90;;;;;;8402293;28;19924;-68
2022/01/13 22:35:10;;;;;;;;;;;4.60;99.90;;;;;;8388084;28;19924;-69
2022/01/13 22:39:12;;;;;;;;;;;4.60;99.90;;;;;;8386797;28;19936;-68
2022/01/13 22:43:14;;;;;;;;;;;4.60;99.90;;;;;;8393526;28;19947;-68
2022/01/13 22:47:16;;;;;;;;;;;4.60;99.90;;;;;;8377475;28;19951;-68
2022/01/13 22:51:18;;;;;;;;;;;4.50;99.90;;;;;;8404045;28;19964;-68
2022/01/13 22:55:20;;;;;;;;;;;4.50;99.90;;;;;;8393290;28;19967;-68
2022/01/13 22:59:21;;;;;;;;;;;4.50;99.90;;;;;;8392958;28;19931;-68
2022/01/13 23:03:23;;;;;;;;;;;4.50;99.90;;;;;;8383185;28;19933;-68
2022/01/13 23:07:25;;;;;;;;;;;4.40;99.90;;;;;;8392147;28;19924;-68
2022/01/13 23:11:28;;;;;;;;;;;4.40;99.90;;;;;;8400273;28;20435;-68
2022/01/13 23:23:52;;;;;;;;;;;4.30;99.90;;;;;;8381085;28;19947;-68
2022/01/13 23:27:54;;;;;;;;;;;4.30;99.90;;;;;;8373700;28;19925;-68
2022/01/13 23:31:56;;;;;;;;;;;4.30;99.90;;;;;;8376433;28;20284;-68
2022/01/13 23:35:58;;;;;;;;;;;4.30;99.90;;;;;;8377768;28;20426;-68
2022/01/13 23:40:00;;;;;;;;;;;4.30;99.90;;;;;;8376552;28;19935;-68
2022/01/13 23:44:02;;;;;;;;;;;4.30;99.90;;;;;;8373829;28;19929;-69
2022/01/13 23:48:03;;;;;;;;;;;4.30;99.90;;;;;;8383876;28;19931;-68
2022/01/13 23:52:06;;;;;;;;;;;4.30;99.90;;;;;;8394270;28;19978;-68
2022/01/13 23:56:08;;;;;;;;;;;4.30;99.90;;;;;;8384193;28;20369;-68
